sensor_id;sensor_type;location;lat;lon;timestamp;P1;durP1;ratioP1;P2;durP2;ratioP2
67514;SDS011;60646;55.802;37.032;2022-09-03T00:00:20;0.47;;;0.30;;
67514;SDS011;60646;55.802;37.032;2022-09-03T00:03:07;0.98;;;0.40;;
67514;SDS011;60646;55.802;37.032;2022-09-03T00:05:42;0.60;;;0.40;;
67514;SDS011;60646;55.802;37.032;2022-09-03T00:13:44;0.30;;;0.30;;
67514;SDS011;60646;55.802;37.032;2022-09-03T00:16:16;0.52;;;0.40;;
67514;SDS011;60646;55.802;37.032;2022-09-03T00:18:56;0.93;;;0.50;;
67514;SDS011;60646;55.802;37.032;2022-09-03T00:26:56;0.90;;;0.50;;
67514;SDS011;60646;55.802;37.032;2022-09-03T00:29:32;0.50;;;0.40;;
67514;SDS011;60646;55.802;37.032;2022-09-03T00:32:06;0.63;;;0.50;;
67514;SDS011;60646;55.802;37.032;2022-09-03T00:34:39;0.93;;;0.50;;
67514;SDS011;60646;55.802;37.032;2022-09-03T00:37:08;1.25;;;0.63;;
67514;SDS011;60646;55.802;37.032;2022-09-03T00:39:35;0.52;;;0.50;;
67514;SDS011;60646;55.802;37.032;2022-09-03T00:50:08;0.40;;;0.40;;
67514;SDS011;60646;55.802;37.032;2022-09-03T01:00:27;0.40;;;0.40;;
67514;SDS011;60646;55.802;37.032;2022-09-03T01:05:40;1.00;;;0.50;;
67514;SDS011;60646;55.802;37.032;2022-09-03T01:26:25;0.75;;;0.60;;
67514;SDS011;60646;55.802;37.032;2022-09-03T01:34:23;0.82;;;0.60;;
67514;SDS011;60646;55.802;37.032;2022-09-03T01:51:02;0.63;;;0.50;;
67514;SDS011;60646;55.802;37.032;2022-09-03T01:59:40;0.93;;;0.60;;
67514;SDS011;60646;55.802;37.032;2022-09-03T02:02:17;1.77;;;0.60;;
67514;SDS011;60646;55.802;37.032;2022-09-03T02:04:56;1.17;;;0.50;;
67514;SDS011;60646;55.802;37.032;2022-09-03T02:07:23;0.75;;;0.73;;
67514;SDS011;60646;55.802;37.032;2022-09-03T02:09:53;0.73;;;0.60;;
67514;SDS011;60646;55.802;37.032;2022-09-03T02:12:19;1.45;;;0.70;;
67514;SDS011;60646;55.802;37.032;2022-09-03T02:14:46;0.47;;;0.47;;
67514;SDS011;60646;55.802;37.032;2022-09-03T02:17:12;3.47;;;0.80;;
67514;SDS011;60646;55.802;37.032;2022-09-03T02:19:37;1.52;;;0.60;;
67514;SDS011;60646;55.802;37.032;2022-09-03T02:22:06;1.85;;;0.55;;
67514;SDS011;60646;55.802;37.032;2022-09-03T02:24:33;0.80;;;0.80;;
67514;SDS011;60646;55.802;37.032;2022-09-03T02:26:58;3.15;;;0.47;;
67514;SDS011;60646;55.802;37.032;2022-09-03T02:29:49;0.80;;;0.60;;
67514;SDS011;60646;55.802;37.032;2022-09-03T02:32:21;0.98;;;0.70;;
67514;SDS011;60646;55.802;37.032;2022-09-03T02:34:47;0.75;;;0.70;;
67514;SDS011;60646;55.802;37.032;2022-09-03T02:37:13;0.80;;;0.57;;
67514;SDS011;60646;55.802;37.032;2022-09-03T02:39:41;1.40;;;0.68;;
67514;SDS011;60646;55.802;37.032;2022-09-03T02:42:26;2.13;;;0.60;;
67514;SDS011;60646;55.802;37.032;2022-09-03T02:44:56;0.50;;;0.50;;
67514;SDS011;60646;55.802;37.032;2022-09-03T02:47:32;1.13;;;0.65;;
67514;SDS011;60646;55.802;37.032;2022-09-03T02:50:01;0.90;;;0.60;;
67514;SDS011;60646;55.802;37.032;2022-09-03T02:52:28;2.58;;;0.70;;
67514;SDS011;60646;55.802;37.032;2022-09-03T02:55:08;1.45;;;0.80;;
67514;SDS011;60646;55.802;37.032;2022-09-03T02:57:37;1.10;;;0.63;;
67514;SDS011;60646;55.802;37.032;2022-09-03T03:00:03;0.60;;;0.60;;
67514;SDS011;60646;55.802;37.032;2022-09-03T03:02:30;1.13;;;0.70;;
67514;SDS011;60646;55.802;37.032;2022-09-03T03:04:56;0.98;;;0.70;;
67514;SDS011;60646;55.802;37.032;2022-09-03T03:07:21;1.25;;;0.90;;
67514;SDS011;60646;55.802;37.032;2022-09-03T03:09:47;0.80;;;0.47;;
67514;SDS011;60646;55.802;37.032;2022-09-03T03:12:13;1.23;;;0.80;;
67514;SDS011;60646;55.802;37.032;2022-09-03T03:14:41;0.60;;;0.50;;
67514;SDS011;60646;55.802;37.032;2022-09-03T03:17:08;0.63;;;0.60;;
67514;SDS011;60646;55.802;37.032;2022-09-03T03:19:34;1.02;;;0.70;;
67514;SDS011;60646;55.802;37.032;2022-09-03T03:22:06;0.82;;;0.70;;
67514;SDS011;60646;55.802;37.032;2022-09-03T03:24:36;0.90;;;0.80;;
67514;SDS011;60646;55.802;37.032;2022-09-03T03:27:02;0.63;;;0.60;;
67514;SDS011;60646;55.802;37.032;2022-09-03T03:29:30;0.88;;;0.70;;
67514;SDS011;60646;55.802;37.032;2022-09-03T03:31:57;0.60;;;0.55;;
67514;SDS011;60646;55.802;37.032;2022-09-03T03:34:35;0.90;;;0.63;;
67514;SDS011;60646;55.802;37.032;2022-09-03T03:37:01;0.65;;;0.63;;
67514;SDS011;60646;55.802;37.032;2022-09-03T03:40:00;1.38;;;0.90;;
67514;SDS011;60646;55.802;37.032;2022-09-03T03:42:31;0.52;;;0.50;;
67514;SDS011;60646;55.802;37.032;2022-09-03T03:44:58;1.38;;;0.55;;
67514;SDS011;60646;55.802;37.032;2022-09-03T03:47:24;0.93;;;0.60;;
67514;SDS011;60646;55.802;37.032;2022-09-03T03:49:49;3.08;;;0.65;;
67514;SDS011;60646;55.802;37.032;2022-09-03T03:52:16;0.65;;;0.60;;
67514;SDS011;60646;55.802;37.032;2022-09-03T03:54:44;0.50;;;0.50;;
67514;SDS011;60646;55.802;37.032;2022-09-03T03:57:10;1.23;;;0.50;;
67514;SDS011;60646;55.802;37.032;2022-09-03T03:59:37;2.30;;;0.68;;
67514;SDS011;60646;55.802;37.032;2022-09-03T04:02:06;0.63;;;0.50;;
67514;SDS011;60646;55.802;37.032;2022-09-03T04:04:35;0.75;;;0.68;;
67514;SDS011;60646;55.802;37.032;2022-09-03T04:07:04;0.90;;;0.75;;
67514;SDS011;60646;55.802;37.032;2022-09-03T04:09:40;0.63;;;0.60;;
67514;SDS011;60646;55.802;37.032;2022-09-03T04:12:24;0.50;;;0.50;;
67514;SDS011;60646;55.802;37.032;2022-09-03T04:14:54;0.60;;;0.57;;
67514;SDS011;60646;55.802;37.032;2022-09-03T04:17:21;0.57;;;0.55;;
67514;SDS011;60646;55.802;37.032;2022-09-03T04:19:46;0.77;;;0.60;;
67514;SDS011;60646;55.802;37.032;2022-09-03T04:22:24;1.40;;;0.40;;
67514;SDS011;60646;55.802;37.032;2022-09-03T04:24:50;0.40;;;0.40;;
67514;SDS011;60646;55.802;37.032;2022-09-03T04:27:16;0.43;;;0.43;;
67514;SDS011;60646;55.802;37.032;2022-09-03T04:29:42;0.60;;;0.50;;
67514;SDS011;60646;55.802;37.032;2022-09-03T04:32:08;0.50;;;0.50;;
67514;SDS011;60646;55.802;37.032;2022-09-03T04:34:53;0.70;;;0.60;;
67514;SDS011;60646;55.802;37.032;2022-09-03T04:37:18;0.50;;;0.40;;
67514;SDS011;60646;55.802;37.032;2022-09-03T04:39:44;0.45;;;0.43;;
67514;SDS011;60646;55.802;37.032;2022-09-03T04:42:10;0.50;;;0.50;;
67514;SDS011;60646;55.802;37.032;2022-09-03T04:44:36;0.50;;;0.50;;
67514;SDS011;60646;55.802;37.032;2022-09-03T04:47:05;0.70;;;0.60;;
67514;SDS011;60646;55.802;37.032;2022-09-03T04:49:31;0.52;;;0.50;;
67514;SDS011;60646;55.802;37.032;2022-09-03T04:51:57;0.75;;;0.52;;
67514;SDS011;60646;55.802;37.032;2022-09-03T04:54:23;0.60;;;0.50;;
67514;SDS011;60646;55.802;37.032;2022-09-03T04:56:49;0.50;;;0.50;;
67514;SDS011;60646;55.802;37.032;2022-09-03T04:59:14;0.77;;;0.55;;
67514;SDS011;60646;55.802;37.032;2022-09-03T05:01:41;0.52;;;0.50;;
67514;SDS011;60646;55.802;37.032;2022-09-03T05:04:07;0.50;;;0.50;;
67514;SDS011;60646;55.802;37.032;2022-09-03T05:06:34;0.50;;;0.47;;
67514;SDS011;60646;55.802;37.032;2022-09-03T05:09:02;0.95;;;0.60;;
67514;SDS011;60646;55.802;37.032;2022-09-03T05:11:29;0.60;;;0.60;;
67514;SDS011;60646;55.802;37.032;2022-09-03T05:13:55;0.50;;;0.50;;
67514;SDS011;60646;55.802;37.032;2022-09-03T05:16:22;0.85;;;0.52;;
67514;SDS011;60646;55.802;37.032;2022-09-03T05:18:53;0.40;;;0.40;;
67514;SDS011;60646;55.802;37.032;2022-09-03T05:21:20;0.50;;;0.40;;
67514;SDS011;60646;55.802;37.032;2022-09-03T05:23:47;0.65;;;0.50;;
67514;SDS011;60646;55.802;37.032;2022-09-03T05:26:16;0.50;;;0.50;;
67514;SDS011;60646;55.802;37.032;2022-09-03T05:28:43;1.60;;;0.52;;
67514;SDS011;60646;55.802;37.032;2022-09-03T05:31:11;0.57;;;0.50;;
67514;SDS011;60646;55.802;37.032;2022-09-03T05:36:54;0.50;;;0.50;;
67514;SDS011;60646;55.802;37.032;2022-09-03T05:39:21;0.70;;;0.60;;
67514;SDS011;60646;55.802;37.032;2022-09-03T05:41:47;0.57;;;0.40;;
67514;SDS011;60646;55.802;37.032;2022-09-03T05:44:14;0.43;;;0.40;;
67514;SDS011;60646;55.802;37.032;2022-09-03T05:46:40;0.55;;;0.50;;
67514;SDS011;60646;55.802;37.032;2022-09-03T05:49:06;0.60;;;0.45;;
67514;SDS011;60646;55.802;37.032;2022-09-03T05:51:33;0.85;;;0.57;;
67514;SDS011;60646;55.802;37.032;2022-09-03T05:54:00;0.80;;;0.60;;
67514;SDS011;60646;55.802;37.032;2022-09-03T05:56:30;0.65;;;0.50;;
67514;SDS011;60646;55.802;37.032;2022-09-03T05:59:02;0.65;;;0.60;;
67514;SDS011;60646;55.802;37.032;2022-09-03T06:01:32;0.40;;;0.40;;
67514;SDS011;60646;55.802;37.032;2022-09-03T06:04:00;0.45;;;0.45;;
67514;SDS011;60646;55.802;37.032;2022-09-03T06:06:46;0.57;;;0.50;;
67514;SDS011;60646;55.802;37.032;2022-09-03T06:09:17;0.82;;;0.70;;
67514;SDS011;60646;55.802;37.032;2022-09-03T06:11:56;0.50;;;0.50;;
67514;SDS011;60646;55.802;37.032;2022-09-03T06:14:22;0.82;;;0.60;;
67514;SDS011;60646;55.802;37.032;2022-09-03T06:16:49;0.60;;;0.52;;
67514;SDS011;60646;55.802;37.032;2022-09-03T06:19:17;0.57;;;0.55;;
67514;SDS011;60646;55.802;37.032;2022-09-03T06:21:44;0.70;;;0.50;;
67514;SDS011;60646;55.802;37.032;2022-09-03T06:24:17;1.13;;;0.75;;
67514;SDS011;60646;55.802;37.032;2022-09-03T06:26:46;1.00;;;0.57;;
67514;SDS011;60646;55.802;37.032;2022-09-03T06:29:12;1.13;;;0.60;;
67514;SDS011;60646;55.802;37.032;2022-09-03T06:31:39;0.80;;;0.60;;
67514;SDS011;60646;55.802;37.032;2022-09-03T06:34:05;0.85;;;0.60;;
67514;SDS011;60646;55.802;37.032;2022-09-03T06:36:31;0.68;;;0.60;;
67514;SDS011;60646;55.802;37.032;2022-09-03T06:38:57;0.60;;;0.52;;
67514;SDS011;60646;55.802;37.032;2022-09-03T06:41:24;0.52;;;0.52;;
67514;SDS011;60646;55.802;37.032;2022-09-03T06:46:20;1.05;;;0.50;;
67514;SDS011;60646;55.802;37.032;2022-09-03T06:48:47;0.50;;;0.50;;
67514;SDS011;60646;55.802;37.032;2022-09-03T06:51:16;0.60;;;0.60;;
67514;SDS011;60646;55.802;37.032;2022-09-03T06:53:44;0.73;;;0.60;;
67514;SDS011;60646;55.802;37.032;2022-09-03T06:56:13;4.28;;;0.75;;
67514;SDS011;60646;55.802;37.032;2022-09-03T06:58:44;1.02;;;0.60;;
67514;SDS011;60646;55.802;37.032;2022-09-03T07:01:15;0.60;;;0.60;;
67514;SDS011;60646;55.802;37.032;2022-09-03T07:03:44;0.70;;;0.70;;
67514;SDS011;60646;55.802;37.032;2022-09-03T07:06:15;0.65;;;0.60;;
67514;SDS011;60646;55.802;37.032;2022-09-03T07:08:43;2.75;;;0.57;;
67514;SDS011;60646;55.802;37.032;2022-09-03T07:11:11;1.58;;;0.73;;
67514;SDS011;60646;55.802;37.032;2022-09-03T07:13:42;0.68;;;0.57;;
67514;SDS011;60646;55.802;37.032;2022-09-03T07:16:15;0.50;;;0.50;;
67514;SDS011;60646;55.802;37.032;2022-09-03T07:18:43;0.63;;;0.50;;
67514;SDS011;60646;55.802;37.032;2022-09-03T07:21:12;0.75;;;0.60;;
67514;SDS011;60646;55.802;37.032;2022-09-03T07:23:43;0.60;;;0.55;;
67514;SDS011;60646;55.802;37.032;2022-09-03T07:26:30;0.55;;;0.50;;
67514;SDS011;60646;55.802;37.032;2022-09-03T07:28:57;0.57;;;0.47;;
67514;SDS011;60646;55.802;37.032;2022-09-03T07:31:28;0.65;;;0.57;;
67514;SDS011;60646;55.802;37.032;2022-09-03T07:34:00;0.70;;;0.60;;
67514;SDS011;60646;55.802;37.032;2022-09-03T07:36:34;1.25;;;1.00;;
67514;SDS011;60646;55.802;37.032;2022-09-03T07:39:08;0.80;;;0.57;;
67514;SDS011;60646;55.802;37.032;2022-09-03T07:41:35;1.02;;;0.52;;
67514;SDS011;60646;55.802;37.032;2022-09-03T07:44:11;1.13;;;0.77;;
67514;SDS011;60646;55.802;37.032;2022-09-03T07:46:44;0.50;;;0.50;;
67514;SDS011;60646;55.802;37.032;2022-09-03T07:49:15;0.82;;;0.57;;
67514;SDS011;60646;55.802;37.032;2022-09-03T07:51:41;1.10;;;0.50;;
67514;SDS011;60646;55.802;37.032;2022-09-03T07:54:10;0.80;;;0.60;;
67514;SDS011;60646;55.802;37.032;2022-09-03T07:56:45;0.60;;;0.60;;
67514;SDS011;60646;55.802;37.032;2022-09-03T07:59:15;0.82;;;0.50;;
67514;SDS011;60646;55.802;37.032;2022-09-03T08:02:05;1.33;;;0.40;;
67514;SDS011;60646;55.802;37.032;2022-09-03T08:04:31;0.45;;;0.40;;
67514;SDS011;60646;55.802;37.032;2022-09-03T08:10:49;0.63;;;0.30;;
67514;SDS011;60646;55.802;37.032;2022-09-03T08:13:16;0.50;;;0.40;;
67514;SDS011;60646;55.802;37.032;2022-09-03T08:15:42;5.47;;;1.33;;
67514;SDS011;60646;55.802;37.032;2022-09-03T08:18:07;0.68;;;0.30;;
67514;SDS011;60646;55.802;37.032;2022-09-03T08:20:37;0.40;;;0.40;;
67514;SDS011;60646;55.802;37.032;2022-09-03T08:23:04;0.30;;;0.30;;
67514;SDS011;60646;55.802;37.032;2022-09-03T08:25:30;0.60;;;0.40;;
67514;SDS011;60646;55.802;37.032;2022-09-03T08:28:14;0.40;;;0.40;;
67514;SDS011;60646;55.802;37.032;2022-09-03T08:30:40;1.17;;;0.80;;
67514;SDS011;60646;55.802;37.032;2022-09-03T08:33:06;1.52;;;0.70;;
67514;SDS011;60646;55.802;37.032;2022-09-03T08:35:32;1.30;;;0.93;;
67514;SDS011;60646;55.802;37.032;2022-09-03T08:37:59;1.67;;;0.70;;
67514;SDS011;60646;55.802;37.032;2022-09-03T08:40:32;5.88;;;2.65;;
67514;SDS011;60646;55.802;37.032;2022-09-03T08:43:04;10.35;;;3.63;;
67514;SDS011;60646;55.802;37.032;2022-09-03T08:45:43;8.93;;;2.95;;
67514;SDS011;60646;55.802;37.032;2022-09-03T08:48:11;2.78;;;1.10;;
67514;SDS011;60646;55.802;37.032;2022-09-03T08:50:42;3.80;;;1.08;;
67514;SDS011;60646;55.802;37.032;2022-09-03T08:55:58;9.13;;;2.85;;
67514;SDS011;60646;55.802;37.032;2022-09-03T08:58:47;6.25;;;1.70;;
67514;SDS011;60646;55.802;37.032;2022-09-03T09:03:58;2.38;;;0.90;;
67514;SDS011;60646;55.802;37.032;2022-09-03T09:06:41;1.00;;;0.80;;
67514;SDS011;60646;55.802;37.032;2022-09-03T09:09:30;2.38;;;0.40;;
67514;SDS011;60646;55.802;37.032;2022-09-03T09:20:00;0.73;;;0.43;;
67514;SDS011;60646;55.802;37.032;2022-09-03T09:22:37;1.55;;;0.50;;
67514;SDS011;60646;55.802;37.032;2022-09-03T09:25:18;2.05;;;1.00;;
67514;SDS011;60646;55.802;37.032;2022-09-03T09:27:59;2.55;;;0.88;;
67514;SDS011;60646;55.802;37.032;2022-09-03T09:30:33;1.98;;;0.90;;
67514;SDS011;60646;55.802;37.032;2022-09-03T09:32:59;2.42;;;1.40;;
67514;SDS011;60646;55.802;37.032;2022-09-03T09:35:25;2.92;;;1.27;;
67514;SDS011;60646;55.802;37.032;2022-09-03T09:37:53;1.95;;;0.60;;
67514;SDS011;60646;55.802;37.032;2022-09-03T09:40:25;3.22;;;0.90;;
67514;SDS011;60646;55.802;37.032;2022-09-03T09:43:01;6.45;;;2.38;;
67514;SDS011;60646;55.802;37.032;2022-09-03T09:45:39;3.70;;;1.52;;
67514;SDS011;60646;55.802;37.032;2022-09-03T09:51:26;1.20;;;0.65;;
67514;SDS011;60646;55.802;37.032;2022-09-03T09:54:15;1.65;;;0.73;;
67514;SDS011;60646;55.802;37.032;2022-09-03T09:56:44;0.40;;;0.35;;
67514;SDS011;60646;55.802;37.032;2022-09-03T09:59:12;2.22;;;1.02;;
67514;SDS011;60646;55.802;37.032;2022-09-03T10:01:40;1.33;;;0.85;;
67514;SDS011;60646;55.802;37.032;2022-09-03T10:04:30;1.42;;;0.40;;
67514;SDS011;60646;55.802;37.032;2022-09-03T10:07:04;1.13;;;0.50;;
67514;SDS011;60646;55.802;37.032;2022-09-03T10:12:47;0.30;;;0.30;;
67514;SDS011;60646;55.802;37.032;2022-09-03T10:15:41;0.73;;;0.60;;
67514;SDS011;60646;55.802;37.032;2022-09-03T10:21:11;0.85;;;0.40;;
67514;SDS011;60646;55.802;37.032;2022-09-03T10:23:49;0.38;;;0.38;;
67514;SDS011;60646;55.802;37.032;2022-09-03T10:26:41;1.05;;;0.65;;
67514;SDS011;60646;55.802;37.032;2022-09-03T10:29:11;0.40;;;0.30;;
67514;SDS011;60646;55.802;37.032;2022-09-03T10:45:36;0.30;;;0.30;;
67514;SDS011;60646;55.802;37.032;2022-09-03T10:50:59;2.70;;;1.40;;
67514;SDS011;60646;55.802;37.032;2022-09-03T10:56:29;4.57;;;1.58;;
67514;SDS011;60646;55.802;37.032;2022-09-03T11:05:17;0.38;;;0.30;;
67514;SDS011;60646;55.802;37.032;2022-09-03T11:08:26;0.30;;;0.30;;
67514;SDS011;60646;55.802;37.032;2022-09-03T11:10:55;8.20;;;3.78;;
67514;SDS011;60646;55.802;37.032;2022-09-03T11:13:36;3.70;;;2.17;;
67514;SDS011;60646;55.802;37.032;2022-09-03T11:18:56;1.13;;;0.60;;
67514;SDS011;60646;55.802;37.032;2022-09-03T11:21:29;0.75;;;0.45;;
67514;SDS011;60646;55.802;37.032;2022-09-03T11:26:32;0.38;;;0.22;;
67514;SDS011;60646;55.802;37.032;2022-09-03T11:29:00;1.25;;;0.50;;
67514;SDS011;60646;55.802;37.032;2022-09-03T11:31:36;0.30;;;0.30;;
67514;SDS011;60646;55.802;37.032;2022-09-03T11:34:25;1.98;;;0.60;;
67514;SDS011;60646;55.802;37.032;2022-09-03T11:37:27;0.77;;;0.50;;
67514;SDS011;60646;55.802;37.032;2022-09-03T11:39:57;2.30;;;0.70;;
67514;SDS011;60646;55.802;37.032;2022-09-03T11:42:30;1.40;;;0.80;;
67514;SDS011;60646;55.802;37.032;2022-09-03T11:45:33;0.85;;;0.70;;
67514;SDS011;60646;55.802;37.032;2022-09-03T11:48:00;0.77;;;0.65;;
67514;SDS011;60646;55.802;37.032;2022-09-03T11:50:27;2.40;;;0.82;;
67514;SDS011;60646;55.802;37.032;2022-09-03T11:58:40;1.92;;;0.40;;
67514;SDS011;60646;55.802;37.032;2022-09-03T12:01:08;0.55;;;0.50;;
67514;SDS011;60646;55.802;37.032;2022-09-03T12:09:33;0.30;;;0.30;;
67514;SDS011;60646;55.802;37.032;2022-09-03T12:18:05;0.95;;;0.40;;
67514;SDS011;60646;55.802;37.032;2022-09-03T12:20:44;2.17;;;0.40;;
67514;SDS011;60646;55.802;37.032;2022-09-03T12:24:00;0.43;;;0.30;;
67514;SDS011;60646;55.802;37.032;2022-09-03T12:26:23;0.40;;;0.40;;
67514;SDS011;60646;55.802;37.032;2022-09-03T12:28:52;2.15;;;0.35;;
67514;SDS011;60646;55.802;37.032;2022-09-03T12:31:27;1.10;;;0.47;;
67514;SDS011;60646;55.802;37.032;2022-09-03T12:33:58;2.95;;;1.73;;
67514;SDS011;60646;55.802;37.032;2022-09-03T12:36:25;1.95;;;0.90;;
67514;SDS011;60646;55.802;37.032;2022-09-03T12:39:08;1.25;;;0.70;;
67514;SDS011;60646;55.802;37.032;2022-09-03T12:41:35;1.35;;;1.15;;
67514;SDS011;60646;55.802;37.032;2022-09-03T12:44:02;2.17;;;0.80;;
67514;SDS011;60646;55.802;37.032;2022-09-03T12:46:29;0.50;;;0.40;;
67514;SDS011;60646;55.802;37.032;2022-09-03T12:49:03;2.80;;;1.20;;
67514;SDS011;60646;55.802;37.032;2022-09-03T12:51:36;1.55;;;1.00;;
67514;SDS011;60646;55.802;37.032;2022-09-03T12:54:08;4.00;;;2.80;;
67514;SDS011;60646;55.802;37.032;2022-09-03T12:56:41;5.30;;;3.10;;
67514;SDS011;60646;55.802;37.032;2022-09-03T12:59:11;2.47;;;1.27;;
67514;SDS011;60646;55.802;37.032;2022-09-03T13:01:45;1.48;;;0.75;;
67514;SDS011;60646;55.802;37.032;2022-09-03T13:04:16;2.25;;;1.10;;
67514;SDS011;60646;55.802;37.032;2022-09-03T13:06:52;0.80;;;0.40;;
67514;SDS011;60646;55.802;37.032;2022-09-03T13:09:25;0.30;;;0.30;;
67514;SDS011;60646;55.802;37.032;2022-09-03T13:11:57;0.63;;;0.30;;
67514;SDS011;60646;55.802;37.032;2022-09-03T13:14:24;0.30;;;0.30;;
67514;SDS011;60646;55.802;37.032;2022-09-03T13:17:09;0.70;;;0.35;;
67514;SDS011;60646;55.802;37.032;2022-09-03T13:25:21;0.73;;;0.40;;
67514;SDS011;60646;55.802;37.032;2022-09-03T13:28:02;0.95;;;0.40;;
67514;SDS011;60646;55.802;37.032;2022-09-03T13:33:47;0.30;;;0.30;;
67514;SDS011;60646;55.802;37.032;2022-09-03T13:36:23;0.30;;;0.30;;
67514;SDS011;60646;55.802;37.032;2022-09-03T13:41:33;0.52;;;0.40;;
67514;SDS011;60646;55.802;37.032;2022-09-03T13:49:36;0.85;;;0.40;;
67514;SDS011;60646;55.802;37.032;2022-09-03T13:55:08;0.47;;;0.47;;
67514;SDS011;60646;55.802;37.032;2022-09-03T14:01:21;0.30;;;0.30;;
67514;SDS011;60646;55.802;37.032;2022-09-03T14:04:09;1.20;;;0.40;;
67514;SDS011;60646;55.802;37.032;2022-09-03T14:06:48;0.77;;;0.43;;
67514;SDS011;60646;55.802;37.032;2022-09-03T14:09:32;0.50;;;0.50;;
67514;SDS011;60646;55.802;37.032;2022-09-03T14:12:13;0.73;;;0.50;;
67514;SDS011;60646;55.802;37.032;2022-09-03T14:20:29;0.52;;;0.40;;
67514;SDS011;60646;55.802;37.032;2022-09-03T14:26:02;0.68;;;0.40;;
67514;SDS011;60646;55.802;37.032;2022-09-03T14:28:48;0.93;;;0.45;;
67514;SDS011;60646;55.802;37.032;2022-09-03T14:31:37;0.65;;;0.43;;
67514;SDS011;60646;55.802;37.032;2022-09-03T14:34:15;1.17;;;0.40;;
67514;SDS011;60646;55.802;37.032;2022-09-03T14:39:38;0.40;;;0.30;;
67514;SDS011;60646;55.802;37.032;2022-09-03T14:42:12;0.68;;;0.60;;
67514;SDS011;60646;55.802;37.032;2022-09-03T14:45:26;2.00;;;0.60;;
67514;SDS011;60646;55.802;37.032;2022-09-03T15:04:44;1.17;;;0.50;;
67514;SDS011;60646;55.802;37.032;2022-09-03T15:07:52;0.52;;;0.40;;
67514;SDS011;60646;55.802;37.032;2022-09-03T15:13:17;0.70;;;0.70;;
67514;SDS011;60646;55.802;37.032;2022-09-03T15:15:49;0.98;;;0.50;;
67514;SDS011;60646;55.802;37.032;2022-09-03T15:37:20;0.80;;;0.50;;
67514;SDS011;60646;55.802;37.032;2022-09-03T15:39:56;0.40;;;0.38;;
67514;SDS011;60646;55.802;37.032;2022-09-03T15:42:29;0.70;;;0.50;;
67514;SDS011;60646;55.802;37.032;2022-09-03T15:45:19;3.58;;;0.50;;
67514;SDS011;60646;55.802;37.032;2022-09-03T15:48:20;0.77;;;0.50;;
67514;SDS011;60646;55.802;37.032;2022-09-03T15:59:02;0.73;;;0.45;;
67514;SDS011;60646;55.802;37.032;2022-09-03T16:01:43;1.95;;;0.73;;
67514;SDS011;60646;55.802;37.032;2022-09-03T16:04:24;2.78;;;0.60;;
67514;SDS011;60646;55.802;37.032;2022-09-03T16:07:08;0.65;;;0.40;;
67514;SDS011;60646;55.802;37.032;2022-09-03T16:15:42;1.00;;;0.50;;
67514;SDS011;60646;55.802;37.032;2022-09-03T16:18:29;1.13;;;0.60;;
67514;SDS011;60646;55.802;37.032;2022-09-03T16:21:07;1.08;;;0.63;;
67514;SDS011;60646;55.802;37.032;2022-09-03T16:26:12;1.95;;;0.85;;
67514;SDS011;60646;55.802;37.032;2022-09-03T16:45:58;1.50;;;0.98;;
67514;SDS011;60646;55.802;37.032;2022-09-03T17:00:26;2.15;;;1.20;;
67514;SDS011;60646;55.802;37.032;2022-09-03T17:03:22;2.13;;;1.25;;
67514;SDS011;60646;55.802;37.032;2022-09-03T17:09:07;1.60;;;1.17;;
67514;SDS011;60646;55.802;37.032;2022-09-03T17:32:17;5.85;;;2.30;;
67514;SDS011;60646;55.802;37.032;2022-09-03T17:35:10;4.53;;;2.05;;
67514;SDS011;60646;55.802;37.032;2022-09-03T17:37:51;6.22;;;2.78;;
67514;SDS011;60646;55.802;37.032;2022-09-03T17:40:24;4.88;;;2.58;;
67514;SDS011;60646;55.802;37.032;2022-09-03T17:45:51;3.97;;;2.00;;
67514;SDS011;60646;55.802;37.032;2022-09-03T17:54:59;6.30;;;3.90;;
67514;SDS011;60646;55.802;37.032;2022-09-03T17:57:23;8.80;;;4.10;;
67514;SDS011;60646;55.802;37.032;2022-09-03T18:00:04;5.75;;;2.67;;
67514;SDS011;60646;55.802;37.032;2022-09-03T18:02:42;6.00;;;2.80;;
67514;SDS011;60646;55.802;37.032;2022-09-03T18:05:29;4.60;;;2.33;;
67514;SDS011;60646;55.802;37.032;2022-09-03T18:09:07;4.00;;;2.22;;
67514;SDS011;60646;55.802;37.032;2022-09-03T18:11:46;6.40;;;3.03;;
67514;SDS011;60646;55.802;37.032;2022-09-03T18:16:53;4.38;;;2.13;;
67514;SDS011;60646;55.802;37.032;2022-09-03T18:22:34;3.83;;;2.00;;
67514;SDS011;60646;55.802;37.032;2022-09-03T18:25:22;4.90;;;2.08;;
67514;SDS011;60646;55.802;37.032;2022-09-03T18:28:09;3.47;;;2.08;;
67514;SDS011;60646;55.802;37.032;2022-09-03T18:30:57;4.63;;;1.95;;
67514;SDS011;60646;55.802;37.032;2022-09-03T18:33:41;3.25;;;1.70;;
67514;SDS011;60646;55.802;37.032;2022-09-03T18:36:25;1.63;;;1.17;;
67514;SDS011;60646;55.802;37.032;2022-09-03T18:39:14;2.63;;;1.65;;
67514;SDS011;60646;55.802;37.032;2022-09-03T18:48:11;2.42;;;1.27;;
67514;SDS011;60646;55.802;37.032;2022-09-03T18:51:05;2.70;;;1.60;;
67514;SDS011;60646;55.802;37.032;2022-09-03T18:56:48;2.77;;;1.30;;
67514;SDS011;60646;55.802;37.032;2022-09-03T19:08:56;3.15;;;1.17;;
67514;SDS011;60646;55.802;37.032;2022-09-03T19:12:11;1.85;;;1.20;;
67514;SDS011;60646;55.802;37.032;2022-09-03T19:15:00;2.60;;;1.50;;
67514;SDS011;60646;55.802;37.032;2022-09-03T19:23:44;4.00;;;2.90;;
67514;SDS011;60646;55.802;37.032;2022-09-03T19:30:09;7.03;;;2.30;;
67514;SDS011;60646;55.802;37.032;2022-09-03T19:33:03;2.00;;;1.40;;
67514;SDS011;60646;55.802;37.032;2022-09-03T19:39:13;2.67;;;1.50;;
67514;SDS011;60646;55.802;37.032;2022-09-03T19:45:11;2.13;;;1.60;;
67514;SDS011;60646;55.802;37.032;2022-09-03T19:48:22;2.45;;;1.60;;
67514;SDS011;60646;55.802;37.032;2022-09-03T19:51:56;3.53;;;1.63;;
67514;SDS011;60646;55.802;37.032;2022-09-03T19:54:51;1.70;;;1.20;;
67514;SDS011;60646;55.802;37.032;2022-09-03T19:57:38;1.27;;;1.00;;
67514;SDS011;60646;55.802;37.032;2022-09-03T20:00:24;1.45;;;1.15;;
67514;SDS011;60646;55.802;37.032;2022-09-03T20:03:12;2.42;;;1.40;;
67514;SDS011;60646;55.802;37.032;2022-09-03T20:05:57;1.92;;;1.17;;
67514;SDS011;60646;55.802;37.032;2022-09-03T20:08:44;1.50;;;1.13;;
67514;SDS011;60646;55.802;37.032;2022-09-03T20:11:30;2.92;;;1.20;;
67514;SDS011;60646;55.802;37.032;2022-09-03T20:13:58;1.65;;;1.20;;
67514;SDS011;60646;55.802;37.032;2022-09-03T20:24:48;2.08;;;1.17;;
67514;SDS011;60646;55.802;37.032;2022-09-03T20:30:27;1.45;;;1.00;;
67514;SDS011;60646;55.802;37.032;2022-09-03T20:36:05;1.85;;;1.30;;
67514;SDS011;60646;55.802;37.032;2022-09-03T20:52:29;1.85;;;1.27;;
67514;SDS011;60646;55.802;37.032;2022-09-03T21:00:16;2.30;;;1.02;;
67514;SDS011;60646;55.802;37.032;2022-09-03T21:02:52;2.65;;;1.30;;
67514;SDS011;60646;55.802;37.032;2022-09-03T21:11:20;1.90;;;1.30;;
67514;SDS011;60646;55.802;37.032;2022-09-03T21:19:52;1.30;;;1.05;;
67514;SDS011;60646;55.802;37.032;2022-09-03T21:22:44;1.60;;;1.10;;
67514;SDS011;60646;55.802;37.032;2022-09-03T21:25:16;1.95;;;1.30;;
67514;SDS011;60646;55.802;37.032;2022-09-03T21:27:50;2.17;;;1.17;;
67514;SDS011;60646;55.802;37.032;2022-09-03T21:30:21;3.08;;;1.52;;
67514;SDS011;60646;55.802;37.032;2022-09-03T21:32:51;2.58;;;1.20;;
67514;SDS011;60646;55.802;37.032;2022-09-03T21:40:30;1.90;;;1.40;;
67514;SDS011;60646;55.802;37.032;2022-09-03T21:43:07;3.58;;;1.40;;
67514;SDS011;60646;55.802;37.032;2022-09-03T21:45:53;2.10;;;1.45;;
67514;SDS011;60646;55.802;37.032;2022-09-03T21:48:25;2.63;;;1.45;;
67514;SDS011;60646;55.802;37.032;2022-09-03T21:51:00;3.08;;;1.48;;
67514;SDS011;60646;55.802;37.032;2022-09-03T21:53:39;2.35;;;1.40;;